sensor_id;sensor_type;location;lat;lon;timestamp;P1;durP1;ratioP1;P2;durP2;ratioP2
35434;SDS011;21556;55.782;37.528;2022-08-20T00:00:56;29.25;;;21.20;;
35434;SDS011;21556;55.782;37.528;2022-08-20T00:03:23;29.08;;;21.00;;
35434;SDS011;21556;55.782;37.528;2022-08-20T00:05:59;28.95;;;19.58;;
35434;SDS011;21556;55.782;37.528;2022-08-20T00:08:29;37.07;;;19.93;;
35434;SDS011;21556;55.782;37.528;2022-08-20T00:10:57;30.23;;;19.70;;
35434;SDS011;21556;55.782;37.528;2022-08-20T00:13:25;23.58;;;17.73;;
35434;SDS011;21556;55.782;37.528;2022-08-20T00:15:55;26.20;;;17.58;;
35434;SDS011;21556;55.782;37.528;2022-08-20T00:18:22;23.42;;;16.90;;
35434;SDS011;21556;55.782;37.528;2022-08-20T00:20:52;25.02;;;17.50;;
35434;SDS011;21556;55.782;37.528;2022-08-20T00:23:20;25.63;;;17.40;;
35434;SDS011;21556;55.782;37.528;2022-08-20T00:25:48;26.58;;;16.95;;
35434;SDS011;21556;55.782;37.528;2022-08-20T00:28:16;24.73;;;18.05;;
35434;SDS011;21556;55.782;37.528;2022-08-20T00:30:43;25.17;;;18.27;;
35434;SDS011;21556;55.782;37.528;2022-08-20T00:33:14;25.67;;;18.45;;
35434;SDS011;21556;55.782;37.528;2022-08-20T00:35:45;34.45;;;20.75;;
35434;SDS011;21556;55.782;37.528;2022-08-20T00:38:21;28.73;;;20.73;;
35434;SDS011;21556;55.782;37.528;2022-08-20T00:40:50;27.73;;;20.85;;
35434;SDS011;21556;55.782;37.528;2022-08-20T00:43:27;26.48;;;20.58;;
35434;SDS011;21556;55.782;37.528;2022-08-20T00:45:57;29.17;;;21.13;;
35434;SDS011;21556;55.782;37.528;2022-08-20T00:48:29;27.40;;;20.73;;
35434;SDS011;21556;55.782;37.528;2022-08-20T00:53:35;28.73;;;20.55;;
35434;SDS011;21556;55.782;37.528;2022-08-20T00:56:03;27.25;;;19.98;;
35434;SDS011;21556;55.782;37.528;2022-08-20T00:58:31;27.30;;;21.00;;
35434;SDS011;21556;55.782;37.528;2022-08-20T01:00:57;29.80;;;20.42;;
35434;SDS011;21556;55.782;37.528;2022-08-20T01:03:27;27.73;;;21.08;;
35434;SDS011;21556;55.782;37.528;2022-08-20T01:05:53;24.17;;;20.05;;
35434;SDS011;21556;55.782;37.528;2022-08-20T01:08:19;23.10;;;18.77;;
35434;SDS011;21556;55.782;37.528;2022-08-20T01:10:48;24.70;;;19.27;;
35434;SDS011;21556;55.782;37.528;2022-08-20T01:13:21;23.65;;;19.83;;
35434;SDS011;21556;55.782;37.528;2022-08-20T01:15:49;25.85;;;18.55;;
35434;SDS011;21556;55.782;37.528;2022-08-20T01:18:19;23.80;;;18.73;;
35434;SDS011;21556;55.782;37.528;2022-08-20T01:20:59;23.40;;;18.00;;
35434;SDS011;21556;55.782;37.528;2022-08-20T01:28:36;26.35;;;17.13;;
35434;SDS011;21556;55.782;37.528;2022-08-20T01:31:06;22.75;;;16.10;;
35434;SDS011;21556;55.782;37.528;2022-08-20T01:33:34;22.55;;;16.05;;
35434;SDS011;21556;55.782;37.528;2022-08-20T01:36:04;21.70;;;15.25;;
35434;SDS011;21556;55.782;37.528;2022-08-20T01:38:30;17.75;;;15.40;;
35434;SDS011;21556;55.782;37.528;2022-08-20T01:43:55;23.17;;;14.05;;
35434;SDS011;21556;55.782;37.528;2022-08-20T01:46:25;24.20;;;13.73;;
35434;SDS011;21556;55.782;37.528;2022-08-20T01:48:54;19.15;;;12.93;;
35434;SDS011;21556;55.782;37.528;2022-08-20T01:51:28;21.33;;;14.20;;
35434;SDS011;21556;55.782;37.528;2022-08-20T01:53:56;17.77;;;12.70;;
35434;SDS011;21556;55.782;37.528;2022-08-20T01:56:28;16.27;;;12.85;;
35434;SDS011;21556;55.782;37.528;2022-08-20T01:58:57;17.73;;;12.70;;
35434;SDS011;21556;55.782;37.528;2022-08-20T02:03:57;22.98;;;13.70;;
35434;SDS011;21556;55.782;37.528;2022-08-20T02:06:25;16.65;;;12.05;;
35434;SDS011;21556;55.782;37.528;2022-08-20T02:08:52;16.55;;;12.25;;
35434;SDS011;21556;55.782;37.528;2022-08-20T02:11:22;15.48;;;11.57;;
35434;SDS011;21556;55.782;37.528;2022-08-20T02:13:49;15.65;;;12.02;;
35434;SDS011;21556;55.782;37.528;2022-08-20T02:16:21;16.25;;;12.02;;
35434;SDS011;21556;55.782;37.528;2022-08-20T02:18:51;14.48;;;11.30;;
35434;SDS011;21556;55.782;37.528;2022-08-20T02:21:21;17.55;;;11.13;;
35434;SDS011;21556;55.782;37.528;2022-08-20T02:23:50;15.20;;;11.25;;
35434;SDS011;21556;55.782;37.528;2022-08-20T02:26:18;16.58;;;10.65;;
35434;SDS011;21556;55.782;37.528;2022-08-20T02:28:45;16.52;;;10.63;;
35434;SDS011;21556;55.782;37.528;2022-08-20T02:31:14;13.40;;;9.95;;
35434;SDS011;21556;55.782;37.528;2022-08-20T02:33:42;11.60;;;9.68;;
35434;SDS011;21556;55.782;37.528;2022-08-20T02:36:08;14.80;;;9.60;;
35434;SDS011;21556;55.782;37.528;2022-08-20T02:38:37;13.05;;;8.98;;
35434;SDS011;21556;55.782;37.528;2022-08-20T02:41:04;13.90;;;9.55;;
35434;SDS011;21556;55.782;37.528;2022-08-20T02:43:30;12.32;;;8.38;;
35434;SDS011;21556;55.782;37.528;2022-08-20T02:45:56;13.65;;;8.63;;
35434;SDS011;21556;55.782;37.528;2022-08-20T02:48:24;14.38;;;9.43;;
35434;SDS011;21556;55.782;37.528;2022-08-20T02:50:52;17.40;;;10.00;;
35434;SDS011;21556;55.782;37.528;2022-08-20T02:53:22;14.55;;;9.05;;
35434;SDS011;21556;55.782;37.528;2022-08-20T02:55:48;13.68;;;9.52;;
35434;SDS011;21556;55.782;37.528;2022-08-20T02:58:14;13.18;;;9.52;;
35434;SDS011;21556;55.782;37.528;2022-08-20T03:00:41;13.40;;;10.35;;
35434;SDS011;21556;55.782;37.528;2022-08-20T03:03:09;15.20;;;11.27;;
35434;SDS011;21556;55.782;37.528;2022-08-20T03:05:36;19.53;;;15.20;;
35434;SDS011;21556;55.782;37.528;2022-08-20T03:10:32;19.98;;;15.52;;
35434;SDS011;21556;55.782;37.528;2022-08-20T03:13:00;24.92;;;17.58;;
35434;SDS011;21556;55.782;37.528;2022-08-20T03:15:27;24.13;;;17.63;;
35434;SDS011;21556;55.782;37.528;2022-08-20T03:20:21;33.20;;;24.45;;
35434;SDS011;21556;55.782;37.528;2022-08-20T03:22:47;28.40;;;23.20;;
35434;SDS011;21556;55.782;37.528;2022-08-20T03:25:13;29.33;;;25.05;;
35434;SDS011;21556;55.782;37.528;2022-08-20T03:27:40;35.63;;;27.98;;
35434;SDS011;21556;55.782;37.528;2022-08-20T03:30:08;35.28;;;29.10;;
35434;SDS011;21556;55.782;37.528;2022-08-20T03:32:36;40.65;;;33.13;;
35434;SDS011;21556;55.782;37.528;2022-08-20T03:35:03;42.42;;;32.58;;
35434;SDS011;21556;55.782;37.528;2022-08-20T03:37:30;41.70;;;32.80;;
35434;SDS011;21556;55.782;37.528;2022-08-20T03:39:57;37.00;;;32.25;;
35434;SDS011;21556;55.782;37.528;2022-08-20T03:42:24;42.60;;;33.30;;
35434;SDS011;21556;55.782;37.528;2022-08-20T03:44:50;40.65;;;33.20;;
35434;SDS011;21556;55.782;37.528;2022-08-20T03:47:17;39.67;;;30.58;;
35434;SDS011;21556;55.782;37.528;2022-08-20T03:49:44;38.72;;;29.35;;
35434;SDS011;21556;55.782;37.528;2022-08-20T03:52:10;34.03;;;28.83;;
35434;SDS011;21556;55.782;37.528;2022-08-20T03:54:36;36.05;;;25.80;;
35434;SDS011;21556;55.782;37.528;2022-08-20T03:57:02;32.83;;;25.08;;
35434;SDS011;21556;55.782;37.528;2022-08-20T03:59:29;32.75;;;25.08;;
35434;SDS011;21556;55.782;37.528;2022-08-20T04:04:23;29.60;;;21.27;;
35434;SDS011;21556;55.782;37.528;2022-08-20T04:06:49;25.30;;;20.08;;
35434;SDS011;21556;55.782;37.528;2022-08-20T04:09:15;28.70;;;18.95;;
35434;SDS011;21556;55.782;37.528;2022-08-20T04:11:50;22.35;;;16.48;;
35434;SDS011;21556;55.782;37.528;2022-08-20T04:14:18;31.60;;;16.52;;
35434;SDS011;21556;55.782;37.528;2022-08-20T04:16:44;24.17;;;16.73;;
35434;SDS011;21556;55.782;37.528;2022-08-20T04:19:10;22.38;;;15.40;;
35434;SDS011;21556;55.782;37.528;2022-08-20T04:21:36;23.92;;;14.75;;
35434;SDS011;21556;55.782;37.528;2022-08-20T04:24:02;23.85;;;14.73;;
35434;SDS011;21556;55.782;37.528;2022-08-20T04:26:29;26.75;;;14.73;;
35434;SDS011;21556;55.782;37.528;2022-08-20T04:28:55;23.23;;;13.10;;
35434;SDS011;21556;55.782;37.528;2022-08-20T04:31:26;19.50;;;12.70;;
35434;SDS011;21556;55.782;37.528;2022-08-20T04:33:57;22.83;;;12.88;;
35434;SDS011;21556;55.782;37.528;2022-08-20T04:36:26;19.65;;;12.05;;
35434;SDS011;21556;55.782;37.528;2022-08-20T04:38:54;15.73;;;12.02;;
35434;SDS011;21556;55.782;37.528;2022-08-20T04:41:20;24.90;;;11.07;;
35434;SDS011;21556;55.782;37.528;2022-08-20T04:43:46;16.00;;;11.93;;
35434;SDS011;21556;55.782;37.528;2022-08-20T04:46:12;19.90;;;11.20;;
35434;SDS011;21556;55.782;37.528;2022-08-20T04:48:38;17.05;;;9.90;;
35434;SDS011;21556;55.782;37.528;2022-08-20T04:51:08;15.85;;;9.55;;
35434;SDS011;21556;55.782;37.528;2022-08-20T04:53:39;14.05;;;9.55;;
35434;SDS011;21556;55.782;37.528;2022-08-20T04:56:06;17.77;;;9.13;;
35434;SDS011;21556;55.782;37.528;2022-08-20T04:58:33;13.13;;;8.65;;
35434;SDS011;21556;55.782;37.528;2022-08-20T05:01:05;12.57;;;8.73;;
35434;SDS011;21556;55.782;37.528;2022-08-20T05:03:32;13.50;;;8.15;;
35434;SDS011;21556;55.782;37.528;2022-08-20T05:05:59;15.40;;;9.00;;
35434;SDS011;21556;55.782;37.528;2022-08-20T05:08:28;13.82;;;8.00;;
35434;SDS011;21556;55.782;37.528;2022-08-20T05:10:54;11.80;;;7.63;;
35434;SDS011;21556;55.782;37.528;2022-08-20T05:13:22;15.57;;;8.15;;
35434;SDS011;21556;55.782;37.528;2022-08-20T05:15:48;16.10;;;8.50;;
35434;SDS011;21556;55.782;37.528;2022-08-20T05:18:19;21.33;;;7.88;;
35434;SDS011;21556;55.782;37.528;2022-08-20T05:20:47;10.73;;;8.02;;
35434;SDS011;21556;55.782;37.528;2022-08-20T05:23:14;19.40;;;8.38;;
35434;SDS011;21556;55.782;37.528;2022-08-20T05:25:43;13.10;;;7.90;;
35434;SDS011;21556;55.782;37.528;2022-08-20T05:28:16;17.92;;;8.07;;
35434;SDS011;21556;55.782;37.528;2022-08-20T05:30:47;21.15;;;9.07;;
35434;SDS011;21556;55.782;37.528;2022-08-20T05:33:14;14.75;;;7.47;;
35434;SDS011;21556;55.782;37.528;2022-08-20T05:35:44;11.77;;;8.05;;
35434;SDS011;21556;55.782;37.528;2022-08-20T05:38:12;12.60;;;8.27;;
35434;SDS011;21556;55.782;37.528;2022-08-20T05:40:40;16.92;;;7.78;;
35434;SDS011;21556;55.782;37.528;2022-08-20T05:44:06;13.35;;;7.88;;
35434;SDS011;21556;55.782;37.528;2022-08-20T05:47:00;15.68;;;8.65;;
35434;SDS011;21556;55.782;37.528;2022-08-20T05:49:40;24.33;;;9.07;;
35434;SDS011;21556;55.782;37.528;2022-08-20T05:52:06;13.80;;;7.57;;
35434;SDS011;21556;55.782;37.528;2022-08-20T05:54:52;10.13;;;7.57;;
35434;SDS011;21556;55.782;37.528;2022-08-20T05:57:19;14.38;;;9.48;;
35434;SDS011;21556;55.782;37.528;2022-08-20T05:59:45;9.90;;;7.63;;
35434;SDS011;21556;55.782;37.528;2022-08-20T06:02:11;15.45;;;8.15;;
35434;SDS011;21556;55.782;37.528;2022-08-20T06:04:56;11.80;;;7.75;;
35434;SDS011;21556;55.782;37.528;2022-08-20T06:07:22;15.80;;;7.05;;
35434;SDS011;21556;55.782;37.528;2022-08-20T06:09:48;14.80;;;7.93;;
35434;SDS011;21556;55.782;37.528;2022-08-20T06:12:15;12.75;;;7.05;;
35434;SDS011;21556;55.782;37.528;2022-08-20T06:14:42;12.02;;;6.80;;
35434;SDS011;21556;55.782;37.528;2022-08-20T06:17:10;13.65;;;7.65;;
35434;SDS011;21556;55.782;37.528;2022-08-20T06:19:38;13.95;;;7.18;;
35434;SDS011;21556;55.782;37.528;2022-08-20T06:22:04;10.98;;;7.22;;
35434;SDS011;21556;55.782;37.528;2022-08-20T06:24:41;11.55;;;6.65;;
35434;SDS011;21556;55.782;37.528;2022-08-20T06:27:07;14.57;;;5.85;;
35434;SDS011;21556;55.782;37.528;2022-08-20T06:29:34;10.57;;;5.93;;
35434;SDS011;21556;55.782;37.528;2022-08-20T06:32:23;9.20;;;6.65;;
35434;SDS011;21556;55.782;37.528;2022-08-20T06:37:52;13.35;;;6.40;;
35434;SDS011;21556;55.782;37.528;2022-08-20T06:40:22;9.20;;;5.60;;
35434;SDS011;21556;55.782;37.528;2022-08-20T06:42:50;10.35;;;5.60;;
35434;SDS011;21556;55.782;37.528;2022-08-20T06:45:18;10.32;;;5.30;;
35434;SDS011;21556;55.782;37.528;2022-08-20T06:47:52;14.65;;;6.40;;
35434;SDS011;21556;55.782;37.528;2022-08-20T06:50:35;10.13;;;5.50;;
35434;SDS011;21556;55.782;37.528;2022-08-20T06:53:13;13.25;;;5.70;;
35434;SDS011;21556;55.782;37.528;2022-08-20T06:55:45;7.88;;;4.55;;
35434;SDS011;21556;55.782;37.528;2022-08-20T06:58:19;16.95;;;5.03;;
35434;SDS011;21556;55.782;37.528;2022-08-20T07:00:46;14.13;;;5.10;;
35434;SDS011;21556;55.782;37.528;2022-08-20T07:10:08;13.95;;;5.72;;
35434;SDS011;21556;55.782;37.528;2022-08-20T07:12:36;7.97;;;4.30;;
35434;SDS011;21556;55.782;37.528;2022-08-20T07:15:05;14.60;;;4.78;;
35434;SDS011;21556;55.782;37.528;2022-08-20T07:17:34;18.15;;;4.75;;
35434;SDS011;21556;55.782;37.528;2022-08-20T07:20:13;11.85;;;4.82;;
35434;SDS011;21556;55.782;37.528;2022-08-20T07:22:39;10.23;;;4.63;;
35434;SDS011;21556;55.782;37.528;2022-08-20T07:25:07;10.35;;;4.30;;
35434;SDS011;21556;55.782;37.528;2022-08-20T07:27:36;10.82;;;5.63;;
35434;SDS011;21556;55.782;37.528;2022-08-20T07:30:03;12.70;;;4.50;;
35434;SDS011;21556;55.782;37.528;2022-08-20T07:32:49;13.13;;;5.97;;
35434;SDS011;21556;55.782;37.528;2022-08-20T07:35:16;11.68;;;3.92;;
35434;SDS011;21556;55.782;37.528;2022-08-20T07:40:12;15.48;;;4.13;;
35434;SDS011;21556;55.782;37.528;2022-08-20T07:42:53;7.35;;;3.67;;
35434;SDS011;21556;55.782;37.528;2022-08-20T07:45:19;9.38;;;4.53;;
35434;SDS011;21556;55.782;37.528;2022-08-20T07:47:46;13.60;;;4.07;;
35434;SDS011;21556;55.782;37.528;2022-08-20T07:50:19;8.73;;;4.25;;
35434;SDS011;21556;55.782;37.528;2022-08-20T07:52:47;11.07;;;4.30;;
35434;SDS011;21556;55.782;37.528;2022-08-20T07:55:16;12.52;;;3.83;;
35434;SDS011;21556;55.782;37.528;2022-08-20T07:57:43;9.23;;;4.30;;
35434;SDS011;21556;55.782;37.528;2022-08-20T08:00:11;13.13;;;4.43;;
35434;SDS011;21556;55.782;37.528;2022-08-20T08:02:38;10.15;;;3.80;;
35434;SDS011;21556;55.782;37.528;2022-08-20T08:07:32;7.80;;;4.13;;
35434;SDS011;21556;55.782;37.528;2022-08-20T08:09:59;9.85;;;4.03;;
35434;SDS011;21556;55.782;37.528;2022-08-20T08:12:32;13.98;;;3.78;;
35434;SDS011;21556;55.782;37.528;2022-08-20T08:15:02;8.27;;;3.22;;
35434;SDS011;21556;55.782;37.528;2022-08-20T08:17:31;8.65;;;3.38;;
35434;SDS011;21556;55.782;37.528;2022-08-20T08:19:58;9.10;;;3.23;;
35434;SDS011;21556;55.782;37.528;2022-08-20T08:22:24;9.70;;;3.50;;
35434;SDS011;21556;55.782;37.528;2022-08-20T08:24:50;13.73;;;4.07;;
35434;SDS011;21556;55.782;37.528;2022-08-20T08:27:19;7.22;;;4.43;;
35434;SDS011;21556;55.782;37.528;2022-08-20T08:29:46;8.20;;;3.55;;
35434;SDS011;21556;55.782;37.528;2022-08-20T08:32:13;9.25;;;3.95;;
35434;SDS011;21556;55.782;37.528;2022-08-20T08:34:39;7.30;;;3.63;;
35434;SDS011;21556;55.782;37.528;2022-08-20T08:37:05;8.40;;;3.55;;
35434;SDS011;21556;55.782;37.528;2022-08-20T08:39:32;10.15;;;4.20;;
35434;SDS011;21556;55.782;37.528;2022-08-20T08:41:58;12.00;;;3.90;;
35434;SDS011;21556;55.782;37.528;2022-08-20T08:44:33;8.75;;;3.97;;
35434;SDS011;21556;55.782;37.528;2022-08-20T08:47:06;11.80;;;3.63;;
35434;SDS011;21556;55.782;37.528;2022-08-20T08:49:43;11.23;;;4.65;;
35434;SDS011;21556;55.782;37.528;2022-08-20T08:52:14;6.60;;;3.75;;
35434;SDS011;21556;55.782;37.528;2022-08-20T08:54:47;6.32;;;3.92;;
35434;SDS011;21556;55.782;37.528;2022-08-20T08:57:16;10.90;;;3.97;;
35434;SDS011;21556;55.782;37.528;2022-08-20T08:59:43;11.68;;;4.35;;
35434;SDS011;21556;55.782;37.528;2022-08-20T09:02:19;7.80;;;4.00;;
35434;SDS011;21556;55.782;37.528;2022-08-20T09:04:47;13.65;;;3.72;;
35434;SDS011;21556;55.782;37.528;2022-08-20T09:07:15;14.13;;;4.20;;
35434;SDS011;21556;55.782;37.528;2022-08-20T09:09:43;7.57;;;4.07;;
35434;SDS011;21556;55.782;37.528;2022-08-20T09:12:12;10.63;;;4.38;;
35434;SDS011;21556;55.782;37.528;2022-08-20T09:14:43;8.93;;;4.35;;
35434;SDS011;21556;55.782;37.528;2022-08-20T09:17:13;11.15;;;4.10;;
35434;SDS011;21556;55.782;37.528;2022-08-20T09:19:40;10.38;;;4.40;;
35434;SDS011;21556;55.782;37.528;2022-08-20T09:22:11;7.60;;;4.82;;
35434;SDS011;21556;55.782;37.528;2022-08-20T09:24:40;10.25;;;5.28;;
35434;SDS011;21556;55.782;37.528;2022-08-20T09:27:07;10.23;;;4.60;;
35434;SDS011;21556;55.782;37.528;2022-08-20T09:29:33;10.70;;;4.93;;
35434;SDS011;21556;55.782;37.528;2022-08-20T09:32:07;9.27;;;5.03;;
35434;SDS011;21556;55.782;37.528;2022-08-20T09:34:39;9.23;;;5.15;;
35434;SDS011;21556;55.782;37.528;2022-08-20T09:37:06;18.50;;;5.95;;
35434;SDS011;21556;55.782;37.528;2022-08-20T09:39:32;15.77;;;5.82;;
35434;SDS011;21556;55.782;37.528;2022-08-20T09:42:08;12.38;;;6.50;;
35434;SDS011;21556;55.782;37.528;2022-08-20T09:44:36;12.63;;;6.53;;
35434;SDS011;21556;55.782;37.528;2022-08-20T09:47:03;17.85;;;6.68;;
35434;SDS011;21556;55.782;37.528;2022-08-20T09:49:29;20.38;;;7.47;;
35434;SDS011;21556;55.782;37.528;2022-08-20T09:58:08;16.60;;;9.02;;
35434;SDS011;21556;55.782;37.528;2022-08-20T10:00:55;15.43;;;8.93;;
35434;SDS011;21556;55.782;37.528;2022-08-20T10:03:21;13.73;;;8.73;;
35434;SDS011;21556;55.782;37.528;2022-08-20T10:05:46;10.90;;;8.10;;
35434;SDS011;21556;55.782;37.528;2022-08-20T10:08:12;15.40;;;9.27;;
35434;SDS011;21556;55.782;37.528;2022-08-20T10:10:41;16.45;;;9.00;;
35434;SDS011;21556;55.782;37.528;2022-08-20T10:13:07;15.68;;;9.82;;
35434;SDS011;21556;55.782;37.528;2022-08-20T10:15:33;13.13;;;10.57;;
35434;SDS011;21556;55.782;37.528;2022-08-20T10:18:01;19.13;;;10.55;;
35434;SDS011;21556;55.782;37.528;2022-08-20T10:20:30;45.58;;;12.50;;
35434;SDS011;21556;55.782;37.528;2022-08-20T10:22:56;16.42;;;10.15;;
35434;SDS011;21556;55.782;37.528;2022-08-20T10:25:22;17.75;;;10.05;;
35434;SDS011;21556;55.782;37.528;2022-08-20T10:27:48;17.58;;;10.00;;
35434;SDS011;21556;55.782;37.528;2022-08-20T10:30:14;22.35;;;10.57;;
35434;SDS011;21556;55.782;37.528;2022-08-20T10:32:40;14.32;;;9.38;;
35434;SDS011;21556;55.782;37.528;2022-08-20T10:35:07;15.25;;;9.50;;
35434;SDS011;21556;55.782;37.528;2022-08-20T10:37:33;11.93;;;8.93;;
35434;SDS011;21556;55.782;37.528;2022-08-20T10:40:00;15.88;;;8.60;;
35434;SDS011;21556;55.782;37.528;2022-08-20T10:42:28;12.38;;;7.43;;
35434;SDS011;21556;55.782;37.528;2022-08-20T10:44:54;14.32;;;8.70;;
35434;SDS011;21556;55.782;37.528;2022-08-20T10:47:25;10.23;;;7.43;;
35434;SDS011;21556;55.782;37.528;2022-08-20T10:49:55;11.18;;;7.95;;
35434;SDS011;21556;55.782;37.528;2022-08-20T10:52:23;14.02;;;8.02;;
35434;SDS011;21556;55.782;37.528;2022-08-20T10:54:50;15.60;;;8.18;;
35434;SDS011;21556;55.782;37.528;2022-08-20T10:57:21;9.80;;;7.35;;
35434;SDS011;21556;55.782;37.528;2022-08-20T10:59:54;11.45;;;7.57;;
35434;SDS011;21556;55.782;37.528;2022-08-20T11:02:21;11.43;;;6.53;;
35434;SDS011;21556;55.782;37.528;2022-08-20T11:04:48;11.93;;;6.25;;
35434;SDS011;21556;55.782;37.528;2022-08-20T11:07:17;6.72;;;5.40;;
35434;SDS011;21556;55.782;37.528;2022-08-20T11:09:46;8.43;;;5.38;;
35434;SDS011;21556;55.782;37.528;2022-08-20T11:12:13;10.27;;;6.13;;
35434;SDS011;21556;55.782;37.528;2022-08-20T11:14:40;9.97;;;5.87;;
35434;SDS011;21556;55.782;37.528;2022-08-20T11:17:06;10.35;;;5.80;;
35434;SDS011;21556;55.782;37.528;2022-08-20T11:19:37;9.30;;;4.80;;
35434;SDS011;21556;55.782;37.528;2022-08-20T11:22:04;13.48;;;5.28;;
35434;SDS011;21556;55.782;37.528;2022-08-20T11:24:30;8.25;;;5.18;;
35434;SDS011;21556;55.782;37.528;2022-08-20T11:26:55;8.52;;;4.57;;
35434;SDS011;21556;55.782;37.528;2022-08-20T11:29:21;10.30;;;4.18;;
35434;SDS011;21556;55.782;37.528;2022-08-20T11:31:49;10.30;;;4.75;;
35434;SDS011;21556;55.782;37.528;2022-08-20T11:34:15;7.65;;;4.47;;
35434;SDS011;21556;55.782;37.528;2022-08-20T11:36:41;11.15;;;4.32;;
35434;SDS011;21556;55.782;37.528;2022-08-20T11:39:08;13.65;;;3.58;;
35434;SDS011;21556;55.782;37.528;2022-08-20T11:41:34;10.68;;;4.25;;
35434;SDS011;21556;55.782;37.528;2022-08-20T11:44:00;8.60;;;3.47;;
35434;SDS011;21556;55.782;37.528;2022-08-20T11:46:26;10.55;;;4.47;;
35434;SDS011;21556;55.782;37.528;2022-08-20T11:48:51;6.72;;;3.90;;
35434;SDS011;21556;55.782;37.528;2022-08-20T11:51:17;7.70;;;4.00;;
35434;SDS011;21556;55.782;37.528;2022-08-20T11:53:43;6.10;;;3.80;;
35434;SDS011;21556;55.782;37.528;2022-08-20T11:56:09;9.55;;;3.78;;
35434;SDS011;21556;55.782;37.528;2022-08-20T11:58:37;8.05;;;3.78;;
35434;SDS011;21556;55.782;37.528;2022-08-20T12:01:03;7.57;;;3.80;;
35434;SDS011;21556;55.782;37.528;2022-08-20T12:03:29;10.63;;;4.07;;
35434;SDS011;21556;55.782;37.528;2022-08-20T12:05:57;5.80;;;3.67;;
35434;SDS011;21556;55.782;37.528;2022-08-20T12:08:23;9.27;;;3.70;;
35434;SDS011;21556;55.782;37.528;2022-08-20T12:10:49;7.20;;;3.45;;
35434;SDS011;21556;55.782;37.528;2022-08-20T12:13:15;8.93;;;3.58;;
35434;SDS011;21556;55.782;37.528;2022-08-20T12:15:41;6.50;;;3.70;;
35434;SDS011;21556;55.782;37.528;2022-08-20T12:18:08;7.70;;;3.70;;
35434;SDS011;21556;55.782;37.528;2022-08-20T12:20:36;9.00;;;3.80;;
35434;SDS011;21556;55.782;37.528;2022-08-20T12:23:02;4.93;;;3.05;;
35434;SDS011;21556;55.782;37.528;2022-08-20T12:25:28;8.40;;;3.78;;
35434;SDS011;21556;55.782;37.528;2022-08-20T12:27:56;6.88;;;3.83;;
35434;SDS011;21556;55.782;37.528;2022-08-20T12:30:23;7.05;;;3.53;;
35434;SDS011;21556;55.782;37.528;2022-08-20T12:32:50;8.80;;;3.45;;
35434;SDS011;21556;55.782;37.528;2022-08-20T12:35:17;10.73;;;4.10;;
35434;SDS011;21556;55.782;37.528;2022-08-20T12:37:43;6.65;;;3.63;;
35434;SDS011;21556;55.782;37.528;2022-08-20T12:40:12;8.10;;;3.67;;
35434;SDS011;21556;55.782;37.528;2022-08-20T12:42:41;6.68;;;3.75;;
35434;SDS011;21556;55.782;37.528;2022-08-20T12:45:08;14.75;;;3.28;;
35434;SDS011;21556;55.782;37.528;2022-08-20T12:47:35;8.43;;;3.58;;
35434;SDS011;21556;55.782;37.528;2022-08-20T12:50:04;7.85;;;3.17;;
35434;SDS011;21556;55.782;37.528;2022-08-20T12:52:39;9.25;;;3.47;;
35434;SDS011;21556;55.782;37.528;2022-08-20T12:55:06;5.38;;;3.30;;
35434;SDS011;21556;55.782;37.528;2022-08-20T13:00:03;7.55;;;3.40;;
35434;SDS011;21556;55.782;37.528;2022-08-20T13:02:39;9.30;;;3.10;;
35434;SDS011;21556;55.782;37.528;2022-08-20T13:05:09;8.70;;;3.15;;
35434;SDS011;21556;55.782;37.528;2022-08-20T13:07:36;11.18;;;3.42;;
35434;SDS011;21556;55.782;37.528;2022-08-20T13:10:04;6.82;;;3.55;;
35434;SDS011;21556;55.782;37.528;2022-08-20T13:12:32;12.02;;;3.83;;
35434;SDS011;21556;55.782;37.528;2022-08-20T13:14:58;10.05;;;5.25;;
35434;SDS011;21556;55.782;37.528;2022-08-20T13:17:24;11.00;;;3.63;;
35434;SDS011;21556;55.782;37.528;2022-08-20T13:19:50;12.00;;;4.30;;
35434;SDS011;21556;55.782;37.528;2022-08-20T13:22:16;8.95;;;3.88;;
35434;SDS011;21556;55.782;37.528;2022-08-20T13:24:42;10.63;;;4.35;;
35434;SDS011;21556;55.782;37.528;2022-08-20T13:27:12;9.25;;;4.28;;
35434;SDS011;21556;55.782;37.528;2022-08-20T13:30:14;10.32;;;3.97;;
35434;SDS011;21556;55.782;37.528;2022-08-20T13:32:32;6.22;;;3.88;;
35434;SDS011;21556;55.782;37.528;2022-08-20T13:34:58;13.10;;;4.30;;
35434;SDS011;21556;55.782;37.528;2022-08-20T13:37:25;10.07;;;4.35;;
35434;SDS011;21556;55.782;37.528;2022-08-20T13:39:53;5.82;;;3.95;;
35434;SDS011;21556;55.782;37.528;2022-08-20T13:42:19;10.80;;;5.03;;
35434;SDS011;21556;55.782;37.528;2022-08-20T13:44:46;11.60;;;5.40;;
35434;SDS011;21556;55.782;37.528;2022-08-20T13:47:13;7.55;;;5.55;;
35434;SDS011;21556;55.782;37.528;2022-08-20T13:49:39;12.80;;;5.72;;
35434;SDS011;21556;55.782;37.528;2022-08-20T13:52:05;13.02;;;6.10;;
35434;SDS011;21556;55.782;37.528;2022-08-20T13:54:31;10.45;;;5.90;;
35434;SDS011;21556;55.782;37.528;2022-08-20T13:57:13;11.98;;;6.90;;
35434;SDS011;21556;55.782;37.528;2022-08-20T13:59:44;12.25;;;6.00;;
35434;SDS011;21556;55.782;37.528;2022-08-20T14:02:11;10.95;;;6.22;;
35434;SDS011;21556;55.782;37.528;2022-08-20T14:04:38;13.95;;;6.80;;
35434;SDS011;21556;55.782;37.528;2022-08-20T14:07:08;11.52;;;5.95;;
35434;SDS011;21556;55.782;37.528;2022-08-20T14:09:44;11.38;;;6.53;;
35434;SDS011;21556;55.782;37.528;2022-08-20T14:12:12;8.93;;;5.72;;
35434;SDS011;21556;55.782;37.528;2022-08-20T14:14:38;12.70;;;6.95;;
35434;SDS011;21556;55.782;37.528;2022-08-20T14:17:15;14.52;;;6.00;;
35434;SDS011;21556;55.782;37.528;2022-08-20T14:19:53;13.27;;;6.57;;
35434;SDS011;21556;55.782;37.528;2022-08-20T14:22:24;12.77;;;6.25;;
35434;SDS011;21556;55.782;37.528;2022-08-20T14:24:50;12.15;;;5.78;;
35434;SDS011;21556;55.782;37.528;2022-08-20T14:27:17;13.57;;;5.90;;
35434;SDS011;21556;55.782;37.528;2022-08-20T14:29:45;12.30;;;5.38;;
35434;SDS011;21556;55.782;37.528;2022-08-20T14:32:12;10.77;;;4.97;;
35434;SDS011;21556;55.782;37.528;2022-08-20T14:34:38;11.32;;;4.68;;
35434;SDS011;21556;55.782;37.528;2022-08-20T14:37:24;9.98;;;4.93;;
35434;SDS011;21556;55.782;37.528;2022-08-20T14:39:53;11.27;;;5.15;;
35434;SDS011;21556;55.782;37.528;2022-08-20T14:42:21;8.43;;;4.25;;
35434;SDS011;21556;55.782;37.528;2022-08-20T14:44:51;9.75;;;3.65;;
35434;SDS011;21556;55.782;37.528;2022-08-20T14:47:22;11.05;;;3.90;;
35434;SDS011;21556;55.782;37.528;2022-08-20T14:49:51;8.30;;;3.75;;
35434;SDS011;21556;55.782;37.528;2022-08-20T14:54:45;9.30;;;3.60;;
35434;SDS011;21556;55.782;37.528;2022-08-20T14:57:12;10.75;;;3.67;;
35434;SDS011;21556;55.782;37.528;2022-08-20T14:59:42;5.63;;;3.08;;
35434;SDS011;21556;55.782;37.528;2022-08-20T15:02:12;12.55;;;3.42;;
35434;SDS011;21556;55.782;37.528;2022-08-20T15:04:39;14.70;;;3.58;;
35434;SDS011;21556;55.782;37.528;2022-08-20T15:07:31;13.75;;;3.72;;
35434;SDS011;21556;55.782;37.528;2022-08-20T15:09:57;6.70;;;3.08;;
35434;SDS011;21556;55.782;37.528;2022-08-20T15:12:26;7.65;;;4.00;;
35434;SDS011;21556;55.782;37.528;2022-08-20T15:14:54;8.57;;;3.15;;
35434;SDS011;21556;55.782;37.528;2022-08-20T15:17:26;9.07;;;3.35;;